createdAt,value
2022-12-09T00:00:13.674Z,7.70
2022-12-09T00:02:40.917Z,7.37
2022-12-09T00:05:08.572Z,7.87
2022-12-09T00:07:36.931Z,7.90
2022-12-09T00:10:05.220Z,7.50
2022-12-09T00:12:32.975Z,7.67
2022-12-09T00:14:59.814Z,8.00
2022-12-09T00:17:26.582Z,7.83
2022-12-09T00:19:53.688Z,8.13
2022-12-09T00:22:20.574Z,8.73
2022-12-09T00:24:47.694Z,8.03
2022-12-09T00:27:14.877Z,7.40
2022-12-09T00:29:41.690Z,7.57
2022-12-09T00:32:08.928Z,8.10
2022-12-09T00:34:36.279Z,8.07
2022-12-09T00:37:04.158Z,7.30
2022-12-09T00:39:31.016Z,7.87
2022-12-09T00:41:57.746Z,7.20
2022-12-09T00:44:24.640Z,7.37
2022-12-09T00:46:51.456Z,7.97
2022-12-09T00:49:19.030Z,7.20
2022-12-09T00:51:46.811Z,7.27
2022-12-09T00:54:14.335Z,7.97
2022-12-09T00:56:41.208Z,8.13
2022-12-09T00:59:08.443Z,6.37
2022-12-09T01:01:35.320Z,7.77
2022-12-09T01:04:03.132Z,7.00
2022-12-09T01:06:30.188Z,7.67
2022-12-09T01:08:57.552Z,8.00
2022-12-09T01:11:27.810Z,7.60
2022-12-09T01:13:57.923Z,6.77
2022-12-09T01:16:27.613Z,7.03
2022-12-09T01:18:57.441Z,6.43
2022-12-09T01:21:25.040Z,7.47
2022-12-09T01:23:52.029Z,8.10
2022-12-09T01:26:19.918Z,7.03
2022-12-09T01:28:51.296Z,7.70
2022-12-09T01:31:23.473Z,6.93
2022-12-09T01:33:51.082Z,7.23
2022-12-09T01:36:24.738Z,7.50
2022-12-09T01:38:52.072Z,6.90
2022-12-09T01:41:20.696Z,7.00
2022-12-09T01:44:16.237Z,7.23
2022-12-09T01:46:43.568Z,6.63
2022-12-09T01:49:16.053Z,7.17
2022-12-09T01:51:47.898Z,7.43
2022-12-09T01:54:16.155Z,6.90
2022-12-09T01:56:44.400Z,8.13
2022-12-09T01:59:14.596Z,6.23
2022-12-09T02:01:45.807Z,7.10
2022-12-09T02:04:12.931Z,6.97
2022-12-09T02:06:40.384Z,6.83
2022-12-09T02:09:11.110Z,6.67
2022-12-09T02:11:45.406Z,6.57
2022-12-09T02:14:15.835Z,6.87
2022-12-09T02:17:01.194Z,6.97
2022-12-09T02:19:47.040Z,6.57
2022-12-09T02:22:20.424Z,7.83
2022-12-09T02:25:21.589Z,7.00
2022-12-09T02:28:04.901Z,7.73
2022-12-09T02:30:40.449Z,6.37
2022-12-09T02:33:33.391Z,7.47
2022-12-09T02:36:05.736Z,7.83
2022-12-09T02:38:34.034Z,7.73
2022-12-09T02:41:12.532Z,8.17
2022-12-09T02:43:50.802Z,7.93
2022-12-09T02:46:24.591Z,7.33
2022-12-09T02:48:59.236Z,8.07
2022-12-09T02:51:30.945Z,8.40
2022-12-09T02:54:04.628Z,13.27
2022-12-09T02:56:35.750Z,14.47
2022-12-09T02:59:02.906Z,10.07
2022-12-09T03:01:35.655Z,12.40
2022-12-09T03:04:03.259Z,8.63
2022-12-09T03:06:44.968Z,9.13
2022-12-09T03:09:27.995Z,11.00
2022-12-09T03:11:59.645Z,11.27
2022-12-09T03:14:34.121Z,12.67
2022-12-09T03:17:23.821Z,9.30
2022-12-09T03:19:55.475Z,9.03
2022-12-09T03:22:26.502Z,9.17
2022-12-09T03:25:01.113Z,9.70
2022-12-09T03:27:39.092Z,9.27
2022-12-09T03:30:10.025Z,8.00
2022-12-09T03:32:40.622Z,8.57
2022-12-09T03:35:23.769Z,7.87
2022-12-09T03:37:53.127Z,8.27
2022-12-09T03:40:27.075Z,7.40
2022-12-09T03:42:59.127Z,7.43
2022-12-09T03:45:26.972Z,8.07
2022-12-09T03:47:54.896Z,8.20
2022-12-09T03:50:25.157Z,7.97
2022-12-09T03:52:58.883Z,8.80
2022-12-09T03:55:31.652Z,8.10
2022-12-09T03:58:01.409Z,8.27
2022-12-09T04:00:28.901Z,8.23
2022-12-09T04:02:56.319Z,8.13
2022-12-09T04:05:23.276Z,9.33
2022-12-09T04:07:50.574Z,8.10
2022-12-09T04:10:17.324Z,8.47
2022-12-09T04:12:44.061Z,7.80
2022-12-09T04:15:11.096Z,8.63
2022-12-09T04:17:37.951Z,8.03
2022-12-09T04:20:07.044Z,7.03
2022-12-09T04:22:35.370Z,7.70
2022-12-09T04:25:02.300Z,7.90
2022-12-09T04:27:29.364Z,8.47
2022-12-09T04:29:56.257Z,8.10
2022-12-09T04:32:23.802Z,8.47
2022-12-09T04:34:51.348Z,8.00
2022-12-09T04:37:18.977Z,9.27
2022-12-09T04:39:46.820Z,8.47
2022-12-09T04:42:13.689Z,8.50
2022-12-09T04:44:41.362Z,8.43
2022-12-09T04:47:08.111Z,8.27
2022-12-09T04:49:35.209Z,9.63
2022-12-09T04:52:01.941Z,8.90
2022-12-09T04:54:28.908Z,8.37
2022-12-09T04:56:55.770Z,9.03
2022-12-09T04:59:22.543Z,8.17
2022-12-09T05:01:49.604Z,7.83
2022-12-09T05:04:17.254Z,8.23
2022-12-09T05:06:44.335Z,8.60
2022-12-09T05:09:13.429Z,8.47
2022-12-09T05:11:40.551Z,9.53
2022-12-09T05:14:07.856Z,8.70
2022-12-09T05:16:35.804Z,8.73
2022-12-09T05:19:03.221Z,8.00
2022-12-09T05:21:30.835Z,8.93
2022-12-09T05:23:58.267Z,9.50
2022-12-09T05:26:25.775Z,8.70
2022-12-09T05:28:52.725Z,8.20
2022-12-09T05:31:22.967Z,8.97
2022-12-09T05:33:52.383Z,8.37
2022-12-09T05:36:24.526Z,8.97
2022-12-09T05:38:53.295Z,8.30
2022-12-09T05:41:22.239Z,9.10
2022-12-09T05:43:49.508Z,9.93
2022-12-09T05:46:17.388Z,9.23
2022-12-09T05:48:45.061Z,8.40
2022-12-09T05:51:23.872Z,8.80
2022-12-09T05:53:51.825Z,8.63
2022-12-09T05:56:20.563Z,9.13
2022-12-09T05:58:48.059Z,9.07
2022-12-09T06:01:15.584Z,10.90
2022-12-09T06:03:43.000Z,10.37
2022-12-09T06:06:14.893Z,10.40
2022-12-09T06:08:43.671Z,11.27
2022-12-09T06:11:22.008Z,10.53
2022-12-09T06:13:49.880Z,10.67
2022-12-09T06:16:19.763Z,10.97
2022-12-09T06:18:48.885Z,11.33
2022-12-09T06:21:17.720Z,11.67
2022-12-09T06:23:44.963Z,11.17
2022-12-09T06:26:18.427Z,10.80
2022-12-09T06:28:46.278Z,10.87
2022-12-09T06:31:13.883Z,11.50
2022-12-09T06:33:58.811Z,10.83
2022-12-09T06:36:29.638Z,10.27
2022-12-09T06:39:01.820Z,10.20
2022-12-09T06:41:33.416Z,10.53
2022-12-09T06:44:00.807Z,10.67
2022-12-09T06:46:29.448Z,12.93
2022-12-09T06:48:56.674Z,12.17
2022-12-09T06:51:25.364Z,10.47
2022-12-09T06:53:53.579Z,10.70
2022-12-09T06:56:21.660Z,10.30
2022-12-09T06:58:49.017Z,10.77
2022-12-09T07:01:20.009Z,10.50
2022-12-09T07:03:50.096Z,10.13
2022-12-09T07:06:29.897Z,9.10
2022-12-09T07:08:59.884Z,10.47
2022-12-09T07:11:28.189Z,9.73
2022-12-09T07:13:55.506Z,10.83
2022-12-09T07:16:23.118Z,10.97
2022-12-09T07:18:51.108Z,9.70
2022-12-09T07:21:20.130Z,10.23
2022-12-09T07:23:48.102Z,10.13
2022-12-09T07:26:16.994Z,9.83
2022-12-09T07:28:47.327Z,9.03
2022-12-09T07:31:26.598Z,10.07
2022-12-09T07:33:55.457Z,11.00
2022-12-09T07:36:26.492Z,11.23
2022-12-09T07:39:06.134Z,11.80
2022-12-09T07:41:33.867Z,10.67
2022-12-09T07:44:00.714Z,9.93
2022-12-09T07:46:28.695Z,9.63
2022-12-09T07:48:57.809Z,9.17
2022-12-09T07:51:26.032Z,10.00
2022-12-09T07:53:54.073Z,10.33
2022-12-09T07:56:24.068Z,11.07
2022-12-09T07:58:53.495Z,10.20
2022-12-09T08:01:29.204Z,9.60
2022-12-09T08:03:57.002Z,8.93
2022-12-09T08:06:26.173Z,8.57
2022-12-09T08:08:54.958Z,8.90
2022-12-09T08:11:25.270Z,8.10
2022-12-09T08:13:55.797Z,8.67
2022-12-09T08:16:24.119Z,8.70
2022-12-09T08:18:52.913Z,10.30
2022-12-09T08:21:24.101Z,9.30
2022-12-09T08:23:53.124Z,9.33
2022-12-09T08:26:23.942Z,8.87
2022-12-09T08:28:51.720Z,8.53
2022-12-09T08:31:24.453Z,9.27
2022-12-09T08:33:53.216Z,9.17
2022-12-09T08:36:25.554Z,9.13
2022-12-09T08:38:53.844Z,8.53
2022-12-09T08:41:36.783Z,9.07
2022-12-09T08:44:17.041Z,9.53
2022-12-09T08:46:47.493Z,9.57
2022-12-09T08:49:20.080Z,9.80
2022-12-09T08:51:48.659Z,8.57
2022-12-09T08:54:16.060Z,8.53
2022-12-09T08:56:47.628Z,10.37
2022-12-09T08:59:16.070Z,11.03
2022-12-09T09:01:43.053Z,9.60
2022-12-09T09:04:14.449Z,10.53
2022-12-09T09:06:44.348Z,8.90
2022-12-09T09:09:13.522Z,11.07
2022-12-09T09:11:41.501Z,10.40
2022-12-09T09:14:11.608Z,10.70
2022-12-09T09:16:42.002Z,10.57
2022-12-09T09:19:15.954Z,10.53
2022-12-09T09:21:43.179Z,9.93
2022-12-09T09:24:12.135Z,11.13
2022-12-09T09:26:42.404Z,10.10
2022-12-09T09:29:16.708Z,10.10
2022-12-09T09:31:44.956Z,10.47
2022-12-09T09:34:12.378Z,10.73
2022-12-09T09:36:40.620Z,11.03
2022-12-09T09:39:08.589Z,11.03
2022-12-09T09:41:50.902Z,11.17
2022-12-09T09:44:24.805Z,10.63
2022-12-09T09:46:53.646Z,10.67
2022-12-09T09:49:24.800Z,11.50
2022-12-09T09:51:53.465Z,13.17
2022-12-09T09:54:20.737Z,10.77
2022-12-09T09:57:00.907Z,11.70
2022-12-09T09:59:36.916Z,13.07
2022-12-09T10:02:11.606Z,11.63
2022-12-09T10:05:14.876Z,11.47
2022-12-09T10:07:44.871Z,11.13
2022-12-09T10:10:25.012Z,11.33
2022-12-09T10:13:21.260Z,12.70
2022-12-09T10:15:55.192Z,11.90
2022-12-09T10:18:29.676Z,12.17
2022-12-09T10:20:56.641Z,12.90
2022-12-09T10:23:33.386Z,13.57
2022-12-09T10:26:05.031Z,13.67
2022-12-09T10:28:40.464Z,14.17
2022-12-09T10:31:09.409Z,13.57
2022-12-09T10:33:39.088Z,16.00
2022-12-09T10:36:16.140Z,14.63
2022-12-09T10:38:43.975Z,16.23
2022-12-09T10:41:39.569Z,17.23
2022-12-09T10:44:26.257Z,16.03
2022-12-09T10:46:58.945Z,20.53
2022-12-09T10:49:26.377Z,16.13
2022-12-09T10:51:55.531Z,16.23
2022-12-09T10:54:35.021Z,14.53
2022-12-09T10:57:14.457Z,16.03
2022-12-09T10:59:59.398Z,17.63
2022-12-09T11:02:27.297Z,16.67
2022-12-09T11:04:56.100Z,20.03
2022-12-09T11:07:26.102Z,17.23
2022-12-09T11:09:59.690Z,17.60
2022-12-09T11:12:36.237Z,18.00
2022-12-09T11:15:12.794Z,18.13
2022-12-09T11:17:55.986Z,18.70
2022-12-09T11:20:28.440Z,19.07
2022-12-09T11:23:15.415Z,19.30
2022-12-09T11:25:56.429Z,18.70
2022-12-09T11:28:36.861Z,18.00
2022-12-09T11:33:59.169Z,17.67
2022-12-09T11:36:44.036Z,16.70
2022-12-09T11:39:20.241Z,16.73
2022-12-09T11:42:16.158Z,16.23
2022-12-09T11:45:05.103Z,18.27
2022-12-09T11:47:57.127Z,15.93
2022-12-09T11:50:26.036Z,16.47
2022-12-09T11:53:23.238Z,16.93
2022-12-09T11:56:04.089Z,16.27
2022-12-09T11:58:41.372Z,17.10
2022-12-09T12:01:46.515Z,15.73
2022-12-09T12:12:26.768Z,16.23
2022-12-09T12:14:56.612Z,15.70
2022-12-09T12:17:31.955Z,17.13
2022-12-09T12:19:59.509Z,16.40
2022-12-09T12:22:49.005Z,16.20
2022-12-09T12:25:59.933Z,15.50
2022-12-09T12:28:30.125Z,14.87
2022-12-09T12:31:11.757Z,15.20
2022-12-09T12:34:16.078Z,16.43
2022-12-09T12:37:00.187Z,14.90
2022-12-09T12:39:40.299Z,16.53
2022-12-09T12:42:28.656Z,15.43
2022-12-09T12:45:21.937Z,15.07
2022-12-09T12:48:07.722Z,14.47
2022-12-09T12:51:06.402Z,14.53
2022-12-09T12:53:51.361Z,16.17
2022-12-09T12:56:46.891Z,16.53
2022-12-09T12:59:41.750Z,15.17
2022-12-09T13:02:27.065Z,14.63
2022-12-09T13:05:24.267Z,14.67
2022-12-09T13:08:01.687Z,15.23
2022-12-09T13:10:46.686Z,15.13
2022-12-09T13:13:26.614Z,16.20
2022-12-09T13:15:56.970Z,15.13
2022-12-09T13:18:44.491Z,16.83
2022-12-09T13:21:13.060Z,15.27
2022-12-09T13:23:56.107Z,16.03
2022-12-09T13:26:42.270Z,16.77
2022-12-09T13:29:15.792Z,16.87
2022-12-09T13:32:07.209Z,15.73
2022-12-09T13:34:44.468Z,15.83
2022-12-09T13:37:43.508Z,20.10
2022-12-09T13:40:38.833Z,21.23
2022-12-09T13:43:27.237Z,18.20
2022-12-09T13:45:59.640Z,17.00
2022-12-09T13:48:29.593Z,18.10
2022-12-09T13:50:59.796Z,19.43
2022-12-09T13:53:31.002Z,19.47
2022-12-09T13:56:08.543Z,23.30
2022-12-09T13:59:13.848Z,23.63
2022-12-09T14:02:11.444Z,21.33
2022-12-09T14:05:06.950Z,20.30
2022-12-09T14:07:46.693Z,20.50
2022-12-09T14:10:47.760Z,18.10
2022-12-09T14:13:33.048Z,20.70
2022-12-09T14:16:17.034Z,20.73
2022-12-09T14:18:44.661Z,16.27
2022-12-09T14:21:17.952Z,16.90
2022-12-09T14:24:09.697Z,18.33
2022-12-09T14:26:45.628Z,20.00
2022-12-09T14:29:47.853Z,20.17
2022-12-09T14:32:37.304Z,17.97
2022-12-09T14:35:20.421Z,17.93
2022-12-09T14:37:52.931Z,15.90
2022-12-09T14:40:42.874Z,16.77
2022-12-09T14:43:09.611Z,16.07
2022-12-09T14:45:58.228Z,17.50
2022-12-09T14:48:28.220Z,16.43
2022-12-09T14:51:18.641Z,16.90
2022-12-09T14:53:59.203Z,17.00
2022-12-09T14:56:28.131Z,16.43
2022-12-09T14:59:00.631Z,16.43
2022-12-09T15:01:28.417Z,16.63
2022-12-09T15:03:58.067Z,17.10
2022-12-09T15:06:29.003Z,19.70
2022-12-09T15:08:58.768Z,23.07
2022-12-09T15:11:34.380Z,25.50
2022-12-09T15:14:27.276Z,24.63
2022-12-09T15:16:59.275Z,20.30
2022-12-09T15:19:59.269Z,17.03
2022-12-09T15:22:27.362Z,17.13
2022-12-09T15:24:54.539Z,17.47
2022-12-09T15:27:24.710Z,17.00
2022-12-09T15:29:53.101Z,17.50
2022-12-09T15:32:27.304Z,17.57
2022-12-09T15:34:54.566Z,15.93
2022-12-09T15:37:28.884Z,16.57
2022-12-09T15:40:08.546Z,16.27
2022-12-09T15:42:38.688Z,17.27
2022-12-09T15:45:23.837Z,18.03
2022-12-09T15:48:18.880Z,17.77
2022-12-09T15:50:48.951Z,17.53
2022-12-09T15:53:35.104Z,17.10
2022-12-09T15:56:06.069Z,18.67
2022-12-09T15:58:38.541Z,18.27
2022-12-09T16:01:06.036Z,18.33
2022-12-09T16:03:35.352Z,23.53
2022-12-09T16:06:07.812Z,23.07
2022-12-09T16:08:44.845Z,21.53
2022-12-09T16:11:13.118Z,21.90
2022-12-09T16:14:00.172Z,21.73
2022-12-09T16:16:52.545Z,23.00
2022-12-09T16:19:31.403Z,21.43
2022-12-09T16:22:05.378Z,20.07
2022-12-09T16:24:57.907Z,19.50
2022-12-09T16:27:26.149Z,19.30
2022-12-09T16:29:59.381Z,18.87
2022-12-09T16:32:31.602Z,19.63
2022-12-09T16:35:33.999Z,19.10
2022-12-09T16:38:09.410Z,17.80
2022-12-09T16:40:45.203Z,18.23
2022-12-09T16:43:22.037Z,21.47
2022-12-09T16:46:19.513Z,21.60
2022-12-09T16:48:49.252Z,20.47
2022-12-09T16:51:25.717Z,24.97
2022-12-09T16:53:54.267Z,22.13
2022-12-09T16:56:29.737Z,21.87
2022-12-09T16:58:59.319Z,22.70
2022-12-09T17:01:34.860Z,22.07
2022-12-09T17:04:14.592Z,26.60
2022-12-09T17:06:41.394Z,26.87
2022-12-09T17:09:08.186Z,20.30
2022-12-09T17:11:35.001Z,19.73
2022-12-09T17:14:02.668Z,19.90
2022-12-09T17:16:30.340Z,18.43
2022-12-09T17:18:57.158Z,17.83
2022-12-09T17:21:25.312Z,19.23
2022-12-09T17:23:52.549Z,18.57
2022-12-09T17:26:20.988Z,19.20
2022-12-09T17:28:49.457Z,18.00
2022-12-09T17:31:22.123Z,19.57
2022-12-09T17:33:49.879Z,17.87
2022-12-09T17:36:18.293Z,19.70
2022-12-09T17:38:47.037Z,19.47
2022-12-09T17:41:19.116Z,19.83
2022-12-09T17:43:46.420Z,20.47
2022-12-09T17:46:15.127Z,21.07
2022-12-09T17:48:42.139Z,20.83
2022-12-09T17:51:11.859Z,22.03
2022-12-09T17:53:40.267Z,20.20
2022-12-09T17:56:17.084Z,19.47
2022-12-09T17:58:45.562Z,20.40
2022-12-09T18:01:20.035Z,19.70
2022-12-09T18:03:56.445Z,19.80
2022-12-09T18:06:27.085Z,17.70
2022-12-09T18:08:54.665Z,19.43
2022-12-09T18:11:22.397Z,18.63
2022-12-09T18:13:50.495Z,19.83
2022-12-09T18:16:17.771Z,20.33
2022-12-09T18:18:45.590Z,20.30
2022-12-09T18:21:15.918Z,21.10
2022-12-09T18:23:44.393Z,21.17
2022-12-09T18:26:14.337Z,22.30
2022-12-09T18:28:41.415Z,20.23
2022-12-09T18:31:14.486Z,19.97
2022-12-09T18:33:42.291Z,21.27
2022-12-09T18:36:17.656Z,20.43
2022-12-09T18:38:45.891Z,20.43
2022-12-09T18:41:12.630Z,19.87
2022-12-09T18:43:41.360Z,36.90
2022-12-09T18:46:11.218Z,34.83
2022-12-09T18:48:38.664Z,24.13
2022-12-09T18:51:08.852Z,22.60
2022-12-09T18:53:35.968Z,19.87
2022-12-09T18:56:05.193Z,19.77
2022-12-09T18:58:57.898Z,20.57
2022-12-09T19:01:24.671Z,19.50
2022-12-09T19:03:54.212Z,19.13
2022-12-09T19:06:26.949Z,18.87
2022-12-09T19:08:58.517Z,23.20
2022-12-09T19:11:32.922Z,22.33
2022-12-09T19:14:01.785Z,25.43
2022-12-09T19:16:31.249Z,24.00
2022-12-09T19:19:01.470Z,29.00
2022-12-09T19:21:32.779Z,23.90
2022-12-09T19:24:01.557Z,21.00
2022-12-09T19:26:31.681Z,19.63
2022-12-09T19:29:01.322Z,20.03
2022-12-09T19:31:31.492Z,20.03
2022-12-09T19:34:05.463Z,20.07
2022-12-09T19:36:34.285Z,18.77
2022-12-09T19:39:04.292Z,18.17
2022-12-09T19:41:32.627Z,17.43
2022-12-09T19:44:01.821Z,19.03
2022-12-09T19:46:30.695Z,17.53
2022-12-09T19:48:57.591Z,19.20
2022-12-09T19:51:26.205Z,18.23
2022-12-09T19:53:55.129Z,18.37
2022-12-09T19:56:22.333Z,18.53
2022-12-09T19:58:49.690Z,17.70
2022-12-09T20:01:38.504Z,17.97
2022-12-09T20:04:46.478Z,18.00
2022-12-09T20:06:56.789Z,16.80
2022-12-09T20:09:25.159Z,16.93
2022-12-09T20:11:53.480Z,17.40
2022-12-09T20:14:20.612Z,17.83
2022-12-09T20:16:47.365Z,18.07
2022-12-09T20:19:14.184Z,17.73
2022-12-09T20:21:41.099Z,18.57
2022-12-09T20:24:09.197Z,18.50
2022-12-09T20:26:37.899Z,19.33
2022-12-09T20:29:07.669Z,17.33
2022-12-09T20:31:36.963Z,16.60
2022-12-09T20:34:06.985Z,18.10
2022-12-09T20:36:36.900Z,17.67
2022-12-09T20:39:11.224Z,17.90
2022-12-09T20:41:39.396Z,16.33
2022-12-09T20:44:06.228Z,17.13
2022-12-09T20:46:33.889Z,16.87
2022-12-09T20:49:02.179Z,16.87
2022-12-09T20:51:32.926Z,16.60
2022-12-09T20:54:00.923Z,18.00
2022-12-09T20:56:29.326Z,18.60
2022-12-09T20:58:57.648Z,19.33
2022-12-09T21:01:31.363Z,19.27
2022-12-09T21:04:01.577Z,18.97
2022-12-09T21:06:32.572Z,18.60
2022-12-09T21:09:22.026Z,17.03
2022-12-09T21:11:49.845Z,17.70
2022-12-09T21:14:18.719Z,18.53
2022-12-09T21:16:47.612Z,18.30
2022-12-09T21:19:16.410Z,16.80
2022-12-09T21:21:48.529Z,17.60
2022-12-09T21:24:16.540Z,17.37
2022-12-09T21:26:44.007Z,17.10
2022-12-09T21:29:12.338Z,17.40
2022-12-09T21:31:44.295Z,18.10
2022-12-09T21:34:11.250Z,18.47
2022-12-09T21:36:40.835Z,17.30
2022-12-09T21:39:09.245Z,17.47
2022-12-09T21:41:37.611Z,16.37
2022-12-09T21:44:06.644Z,17.20
2022-12-09T21:46:36.770Z,16.10
2022-12-09T21:49:06.416Z,16.10
2022-12-09T21:51:35.045Z,17.53
2022-12-09T21:54:03.042Z,17.37
2022-12-09T21:56:32.489Z,16.40
2022-12-09T21:58:59.947Z,15.80
2022-12-09T22:01:28.221Z,16.60
2022-12-09T22:03:56.576Z,16.87
2022-12-09T22:06:23.433Z,18.13
2022-12-09T22:08:51.103Z,17.13
2022-12-09T22:11:24.321Z,17.30
2022-12-09T22:13:52.193Z,19.17
2022-12-09T22:16:22.228Z,19.50
2022-12-09T22:18:50.374Z,18.37
2022-12-09T22:21:27.801Z,18.77
2022-12-09T22:23:57.646Z,17.77
2022-12-09T22:26:25.468Z,16.77
2022-12-09T22:28:53.484Z,18.07
2022-12-09T22:31:23.852Z,17.40
2022-12-09T22:33:53.515Z,18.73
2022-12-09T22:36:21.938Z,17.37
2022-12-09T22:38:49.032Z,17.77
2022-12-09T22:41:18.335Z,17.07
2022-12-09T22:43:51.417Z,16.90
2022-12-09T22:46:29.806Z,17.33
2022-12-09T22:49:02.413Z,17.50
2022-12-09T22:51:33.035Z,17.77
2022-12-09T22:54:02.148Z,17.73
2022-12-09T22:56:28.828Z,17.87
2022-12-09T22:58:55.795Z,18.80
2022-12-09T23:01:28.558Z,16.57
2022-12-09T23:03:56.552Z,17.97
2022-12-09T23:06:25.002Z,16.97
2022-12-09T23:08:52.392Z,17.47
2022-12-09T23:11:24.747Z,17.80
2022-12-09T23:13:52.469Z,17.13
2022-12-09T23:16:22.385Z,17.23
2022-12-09T23:18:50.028Z,18.00
2022-12-09T23:21:23.993Z,18.60
2022-12-09T23:23:56.485Z,17.30
2022-12-09T23:26:27.934Z,18.47
2022-12-09T23:28:57.032Z,17.60
2022-12-09T23:31:26.849Z,17.70
2022-12-09T23:33:54.088Z,17.53
2022-12-09T23:36:24.081Z,16.93
2022-12-09T23:38:52.800Z,18.30
2022-12-09T23:41:21.920Z,17.73
2022-12-09T23:43:49.808Z,17.30
2022-12-09T23:46:22.749Z,17.60
2022-12-09T23:48:51.289Z,18.60
2022-12-09T23:51:22.797Z,18.73
2022-12-09T23:53:51.259Z,18.73
2022-12-09T23:56:22.274Z,17.93
2022-12-09T23:58:54.261Z,17.33
